Time;durP1;ratioP1;P1;durP2;ratioP2;P2;SDS_P1;SDS_P2;PMS_P1;PMS_P2;Temp;Humidity;BMP_temperature;BMP_pressure;BME280_temperature;BME280_humidity;BME280_pressure;Samples;Min_cycle;Max_cycle;Signal;HPM_P1;HPM_P2
2023/07/17 00:00:26;;;;;;;3.38;2.63;;;;;;;;;;5085031;28;19924;-73
2023/07/17 00:02:56;;;;;;;5.22;2.72;;;;;;;;;;5083546;28;20055;-73
2023/07/17 00:05:26;;;;;;;;;;;;;;;;;;5085596;28;20672;-73
2023/07/17 00:07:56;;;;;;;3.78;2.17;;;;;;;;;;5082998;28;19920;-73
2023/07/17 00:10:26;;;;;;;;;;;;;;;;;;5079447;28;20040;-73
2023/07/17 00:12:58;;;;;;;8.23;3.72;;;;;;;;;;5064454;28;19920;-73
2023/07/17 00:15:34;;;;;;;6.80;2.95;;;;;;;;;;5064542;28;20755;-73
2023/07/17 00:18:04;;;;;;;6.07;3.13;;;;;;;;;;5064755;28;20052;-73
2023/07/17 00:20:36;;;;;;;8.63;2.97;;;;;;;;;;5072797;28;20063;-73
2023/07/17 00:23:06;;;;;;;8.48;3.47;;;;;;;;;;5085164;28;20394;-73
2023/07/17 00:25:37;;;;;;;5.32;2.97;;;;;;;;;;5084629;28;20783;-74
2023/07/17 00:28:07;;;;;;;7.68;3.75;;;;;;;;;;5084897;28;20491;-73
2023/07/17 00:30:38;;;;;;;7.30;2.83;;;;;;;;;;5084658;28;20907;-73
2023/07/17 00:33:10;;;;;;;4.93;2.67;;;;;;;;;;5082416;28;20063;-74
2023/07/17 00:35:41;;;;;;;5.43;2.88;;;;;;;;;;5084835;28;20052;-73
2023/07/17 00:38:12;;;;;;;4.13;2.50;;;;;;;;;;5084210;28;20040;-74
2023/07/17 00:40:42;;;;;;;;;;;;;;;;;;5083713;28;20044;-73
2023/07/17 00:43:13;;;;;;;3.58;2.20;;;;;;;;;;5081419;28;19928;-73
2023/07/17 00:45:46;;;;;;;6.20;2.78;;;;;;;;;;5084404;28;20513;-74
2023/07/17 00:48:16;;;;;;;4.45;2.50;;;;;;;;;;5100114;28;20866;-73
2023/07/17 00:50:48;;;;;;;12.60;4.05;;;;;;;;;;5082179;28;20800;-74
2023/07/17 00:53:19;;;;;;;7.93;4.50;;;;;;;;;;5084539;28;20044;-73
2023/07/17 00:55:50;;;;;;;10.90;5.53;;;;;;;;;;5084690;28;20702;-74
2023/07/17 00:58:19;;;;;;;9.57;5.30;;;;;;;;;;5085036;28;20043;-74
2023/07/17 01:00:50;;;;;;;9.82;4.47;;;;;;;;;;5082891;28;20055;-73
2023/07/17 01:03:22;;;;;;;6.05;3.55;;;;;;;;;;5083658;28;20540;-73
2023/07/17 01:05:57;;;;;;;6.05;3.60;;;;;;;;;;5085577;28;20048;-73
2023/07/17 01:08:27;;;;;;;5.60;2.97;;;;;;;;;;5086136;28;20058;-73
2023/07/17 01:10:58;;;;;;;6.32;2.00;;;;;;;;;;5085650;28;20048;-73
2023/07/17 01:13:29;;;;;;;7.63;1.98;;;;;;;;;;5086223;28;20487;-73
2023/07/17 01:16:00;;;;;;;3.40;2.15;;;;;;;;;;5100472;28;21064;-73
2023/07/17 01:18:29;;;;;;;6.72;2.45;;;;;;;;;;5085659;28;20052;-73
2023/07/17 01:21:01;;;;;;;4.93;2.67;;;;;;;;;;5085575;28;20043;-73
2023/07/17 01:23:33;;;;;;;7.38;3.50;;;;;;;;;;5085826;28;20044;-73
2023/07/17 01:26:17;;;;;;;4.85;3.22;;;;;;;;;;5084158;28;20052;-72
2023/07/17 01:28:49;;;;;;;5.07;2.97;;;;;;;;;;5085449;28;20055;-73
2023/07/17 01:31:20;;;;;;;5.75;2.60;;;;;;;;;;5087908;28;20502;-74
2023/07/17 01:33:52;;;;;;;4.50;2.50;;;;;;;;;;5087607;28;20036;-72
2023/07/17 01:36:22;;;;;;;3.97;2.78;;;;;;;;;;5087556;28;20052;-73
2023/07/17 01:38:54;;;;;;;4.30;2.25;;;;;;;;;;5085223;28;20400;-73
2023/07/17 01:41:26;;;;;;;5.32;2.40;;;;;;;;;;5087141;28;20074;-72
2023/07/17 01:43:58;;;;;;;4.07;2.33;;;;;;;;;;5102456;28;20079;-72
2023/07/17 01:46:29;;;;;;;3.13;1.98;;;;;;;;;;5087684;28;20065;-72
2023/07/17 01:48:59;;;;;;;5.47;2.50;;;;;;;;;;5087305;28;20058;-73
2023/07/17 01:51:29;;;;;;;6.15;2.67;;;;;;;;;;5087241;28;20044;-74
2023/07/17 01:54:00;;;;;;;4.60;2.08;;;;;;;;;;5087108;28;20416;-72
2023/07/17 01:56:31;;;;;;;4.13;2.40;;;;;;;;;;5087397;28;20044;-72
2023/07/17 01:59:02;;;;;;;4.15;2.20;;;;;;;;;;5087133;28;20415;-72
2023/07/17 02:01:33;;;;;;;;;;;;;;;;;;5085961;28;20052;-72
2023/07/17 02:04:05;;;;;;;3.67;2.05;;;;;;;;;;5087495;28;19927;-72
2023/07/17 02:06:35;;;;;;;4.05;2.28;;;;;;;;;;5086873;28;20051;-72
2023/07/17 02:09:06;;;;;;;3.78;2.30;;;;;;;;;;5085497;28;20426;-73
2023/07/17 02:11:36;;;;;;;2.75;1.67;;;;;;;;;;5086691;28;20055;-72
2023/07/17 02:14:05;;;;;;;;;;;;;;;;;;5085255;28;20529;-72
2023/07/17 02:16:35;;;;;;;4.78;1.83;;;;;;;;;;5084430;28;20481;-72
2023/07/17 02:19:06;;;;;;;5.90;2.20;;;;;;;;;;5086655;28;20059;-72
2023/07/17 02:21:37;;;;;;;4.75;2.03;;;;;;;;;;5086977;28;20505;-73
2023/07/17 02:24:09;;;;;;;6.40;2.20;;;;;;;;;;5101770;28;20047;-72
2023/07/17 02:26:40;;;;;;;8.77;1.90;;;;;;;;;;5084585;28;20086;-72
2023/07/17 02:29:11;;;;;;;7.28;2.13;;;;;;;;;;5101572;28;20048;-73
2023/07/17 02:31:41;;;;;;;4.72;2.03;;;;;;;;;;5084266;28;20048;-73
2023/07/17 02:34:11;;;;;;;2.15;1.52;;;;;;;;;;5086821;28;20048;-72
2023/07/17 02:36:43;;;;;;;2.15;1.27;;;;;;;;;;5086637;28;20048;-72
2023/07/17 02:39:14;;;;;;;3.60;1.52;;;;;;;;;;5086199;28;20035;-72
2023/07/17 02:41:45;;;;;;;2.58;1.45;;;;;;;;;;5086411;28;20526;-72
2023/07/17 02:44:16;;;;;;;3.42;1.60;;;;;;;;;;5084569;28;20059;-72
2023/07/17 02:46:46;;;;;;;3.05;1.58;;;;;;;;;;5086354;28;20040;-72
2023/07/17 02:49:16;;;;;;;3.80;1.55;;;;;;;;;;5086828;28;20059;-73
2023/07/17 02:51:46;;;;;;;2.42;1.60;;;;;;;;;;5086239;28;20498;-73
2023/07/17 02:54:20;;;;;;;2.25;1.40;;;;;;;;;;5101222;28;20379;-72
2023/07/17 02:56:50;;;;;;;5.75;1.63;;;;;;;;;;5085874;28;20044;-73
2023/07/17 02:59:20;;;;;;;1.88;1.50;;;;;;;;;;5084200;28;20063;-73
2023/07/17 03:01:50;;;;;;;6.63;2.28;;;;;;;;;;5085514;28;20055;-72
2023/07/17 03:04:20;;;;;;;;;;;;;;;;;;5086716;28;20051;-73
2023/07/17 03:06:50;;;;;;;2.35;1.40;;;;;;;;;;5083875;28;19920;-72
2023/07/17 03:09:21;;;;;;;3.95;2.00;;;;;;;;;;5085730;28;21092;-72
2023/07/17 03:11:52;;;;;;;5.22;2.05;;;;;;;;;;5085684;28;20055;-72
2023/07/17 03:14:23;;;;;;;2.70;1.80;;;;;;;;;;5083642;28;20056;-72
2023/07/17 03:16:53;;;;;;;4.38;1.90;;;;;;;;;;5083364;28;20090;-73
2023/07/17 03:19:23;;;;;;;3.95;2.10;;;;;;;;;;5085604;28;20486;-72
2023/07/17 03:21:53;;;;;;;2.55;1.88;;;;;;;;;;5083810;28;20290;-72
2023/07/17 03:24:31;;;;;;;5.38;1.55;;;;;;;;;;5083806;28;20059;-73
2023/07/17 03:27:01;;;;;;;2.70;1.50;;;;;;;;;;5085329;28;20047;-72
2023/07/17 03:29:31;;;;;;;2.80;2.13;;;;;;;;;;5085960;28;20396;-72
2023/07/17 03:32:02;;;;;;;3.08;1.70;;;;;;;;;;5084771;28;20400;-73
2023/07/17 03:34:33;;;;;;;4.00;1.75;;;;;;;;;;5085362;28;20048;-72
2023/07/17 03:37:04;;;;;;;3.95;1.95;;;;;;;;;;5083318;28;20442;-73
2023/07/17 03:39:38;;;;;;;2.45;1.60;;;;;;;;;;5085819;28;20415;-72
2023/07/17 03:42:12;;;;;;;4.90;1.58;;;;;;;;;;5085206;28;20051;-72
2023/07/17 03:44:43;;;;;;;4.63;1.75;;;;;;;;;;5082867;28;20376;-72
2023/07/17 03:47:13;;;;;;;4.93;1.52;;;;;;;;;;5083384;28;20060;-72
2023/07/17 03:49:43;;;;;;;3.75;2.15;;;;;;;;;;5083099;28;20063;-72
2023/07/17 03:52:14;;;;;;;5.35;2.03;;;;;;;;;;5085412;28;20060;-72
2023/07/17 03:54:46;;;;;;;4.53;2.15;;;;;;;;;;5082834;28;20055;-72
2023/07/17 03:57:17;;;;;;;2.15;1.40;;;;;;;;;;5082830;28;20052;-72
2023/07/17 03:59:52;;;;;;;4.07;1.67;;;;;;;;;;5099619;28;20067;-73
2023/07/17 04:02:26;;;;;;;1.88;1.58;;;;;;;;;;5083257;28;20083;-72
2023/07/17 04:04:58;;;;;;;2.60;1.52;;;;;;;;;;5083206;28;20044;-73
2023/07/17 04:07:29;;;;;;;2.65;1.65;;;;;;;;;;5084475;28;20044;-72
2023/07/17 04:09:59;;;;;;;3.10;1.40;;;;;;;;;;5085502;28;20521;-72
2023/07/17 04:12:30;;;;;;;2.72;1.60;;;;;;;;;;5082504;28;20530;-72
2023/07/17 04:15:00;;;;;;;3.75;1.55;;;;;;;;;;5083225;28;20067;-73
2023/07/17 04:17:31;;;;;;;4.97;1.80;;;;;;;;;;5099748;28;20048;-72
2023/07/17 04:20:02;;;;;;;2.95;1.77;;;;;;;;;;5084671;28;20052;-72
2023/07/17 04:22:33;;;;;;;2.75;1.50;;;;;;;;;;5085020;28;20040;-73
2023/07/17 04:25:05;;;;;;;1.88;1.40;;;;;;;;;;5083148;28;20071;-73
2023/07/17 04:27:37;;;;;;;5.10;1.63;;;;;;;;;;5082988;28;20071;-73
2023/07/17 04:30:08;;;;;;;2.13;1.52;;;;;;;;;;5083117;28;20545;-72
2023/07/17 04:32:39;;;;;;;2.38;1.55;;;;;;;;;;5082611;28;20419;-72
2023/07/17 04:35:09;;;;;;;;;;;;;;;;;;5082797;28;20040;-72
2023/07/17 04:37:41;;;;;;;2.95;1.55;;;;;;;;;;5085747;28;19924;-73
2023/07/17 04:40:13;;;;;;;2.17;1.40;;;;;;;;;;5086527;28;20048;-73
2023/07/17 04:42:45;;;;;;;1.80;1.35;;;;;;;;;;5086728;28;20052;-72
2023/07/17 04:45:19;;;;;;;2.03;1.20;;;;;;;;;;5103899;28;20056;-72
2023/07/17 04:47:52;;;;;;;1.92;1.58;;;;;;;;;;5086628;28;20063;-73
2023/07/17 04:50:27;;;;;;;5.43;1.40;;;;;;;;;;5086747;28;20052;-73
2023/07/17 04:53:00;;;;;;;1.67;1.30;;;;;;;;;;5086252;28;20129;-73
2023/07/17 04:55:31;;;;;;;1.45;1.13;;;;;;;;;;5088851;28;20048;-73
2023/07/17 04:58:01;;;;;;;2.55;1.67;;;;;;;;;;5088343;28;20040;-73
2023/07/17 05:00:34;;;;;;;2.70;1.52;;;;;;;;;;5086507;28;20048;-73
2023/07/17 05:03:05;;;;;;;3.42;1.85;;;;;;;;;;5086768;28;20067;-73
2023/07/17 05:05:36;;;;;;;3.08;1.55;;;;;;;;;;5086098;28;20052;-73
2023/07/17 05:08:08;;;;;;;1.90;1.33;;;;;;;;;;5086192;28;20406;-73
2023/07/17 05:10:38;;;;;;;3.00;1.42;;;;;;;;;;5085674;28;20528;-73
2023/07/17 05:13:09;;;;;;;2.08;1.52;;;;;;;;;;5089276;28;20043;-73
2023/07/17 05:15:42;;;;;;;4.20;1.73;;;;;;;;;;5088355;28;20051;-73
2023/07/17 05:18:13;;;;;;;2.72;1.75;;;;;;;;;;5086319;28;20051;-73
2023/07/17 05:20:48;;;;;;;2.80;1.52;;;;;;;;;;5085794;28;20403;-73
2023/07/17 05:23:19;;;;;;;2.30;1.40;;;;;;;;;;5088017;28;20647;-73
2023/07/17 05:25:58;;;;;;;3.20;1.60;;;;;;;;;;5085669;28;20055;-73
2023/07/17 05:28:30;;;;;;;2.97;1.48;;;;;;;;;;5086463;28;20056;-73
2023/07/17 05:31:00;;;;;;;1.65;1.23;;;;;;;;;;5085731;28;20056;-72
2023/07/17 05:33:31;;;;;;;2.85;1.60;;;;;;;;;;5085870;28;20426;-73
2023/07/17 05:36:02;;;;;;;3.13;1.55;;;;;;;;;;5086068;28;20055;-72
2023/07/17 05:38:33;;;;;;;2.92;1.55;;;;;;;;;;5085921;28;20521;-73
2023/07/17 05:41:04;;;;;;;3.13;1.63;;;;;;;;;;5085247;28;20449;-73
2023/07/17 05:43:34;;;;;;;2.85;1.63;;;;;;;;;;5087258;28;20044;-73
2023/07/17 05:46:13;;;;;;;2.95;1.80;;;;;;;;;;5085350;28;20048;-73
2023/07/17 05:48:44;;;;;;;2.33;1.45;;;;;;;;;;5086286;28;20036;-73
2023/07/17 05:51:14;;;;;;;2.50;1.65;;;;;;;;;;5102526;28;20044;-73
2023/07/17 05:53:44;;;;;;;3.28;1.50;;;;;;;;;;5087406;28;20044;-72
2023/07/17 05:56:16;;;;;;;1.95;1.52;;;;;;;;;;5087394;28;20051;-73
2023/07/17 05:58:47;;;;;;;2.30;1.63;;;;;;;;;;5085502;28;20047;-73
2023/07/17 06:01:17;;;;;;;1.40;1.30;;;;;;;;;;5087237;28;20052;-72
2023/07/17 06:03:48;;;;;;;2.45;1.50;;;;;;;;;;5084766;28;20055;-73
2023/07/17 06:06:19;;;;;;;2.15;1.40;;;;;;;;;;5102025;28;20055;-73
2023/07/17 06:08:50;;;;;;;2.33;1.50;;;;;;;;;;5087361;28;20044;-73
2023/07/17 06:11:20;;;;;;;3.13;1.45;;;;;;;;;;5087531;28;20491;-72
2023/07/17 06:13:50;;;;;;;3.65;1.77;;;;;;;;;;5086559;28;20415;-73
2023/07/17 06:16:20;;;;;;;2.60;1.73;;;;;;;;;;5086726;28;20491;-73
2023/07/17 06:18:52;;;;;;;2.50;1.75;;;;;;;;;;5086961;28;20048;-73
2023/07/17 06:21:22;;;;;;;;;;;;;;;;;;5087187;28;20426;-73
2023/07/17 06:23:52;;;;;;;2.10;1.55;;;;;;;;;;5087112;28;19919;-73
2023/07/17 06:26:23;;;;;;;2.63;1.45;;;;;;;;;;5086809;28;20052;-73
2023/07/17 06:28:53;;;;;;;2.70;1.80;;;;;;;;;;5086857;28;20043;-73
2023/07/17 06:31:22;;;;;;;;;;;;;;;;;;5086530;28;20040;-73
2023/07/17 06:33:53;;;;;;;5.03;1.63;;;;;;;;;;5085823;28;19931;-73
2023/07/17 06:36:24;;;;;;;1.95;1.42;;;;;;;;;;5086717;28;20533;-73
2023/07/17 06:38:54;;;;;;;2.78;1.45;;;;;;;;;;5086566;28;20044;-73
2023/07/17 06:41:24;;;;;;;2.78;1.92;;;;;;;;;;5086413;28;20051;-73
2023/07/17 06:43:57;;;;;;;2.72;1.90;;;;;;;;;;5084673;28;20067;-73
2023/07/17 06:46:28;;;;;;;5.70;1.70;;;;;;;;;;5086505;28;20048;-73
2023/07/17 06:48:58;;;;;;;3.65;1.70;;;;;;;;;;5086009;28;20044;-73
2023/07/17 06:51:28;;;;;;;2.42;1.90;;;;;;;;;;5086315;28;20052;-73
2023/07/17 06:53:59;;;;;;;3.28;1.88;;;;;;;;;;5086180;28;20391;-72
2023/07/17 06:56:30;;;;;;;3.75;2.00;;;;;;;;;;5085640;28;20055;-72
2023/07/17 06:59:01;;;;;;;2.65;2.05;;;;;;;;;;5085576;28;20055;-73
2023/07/17 07:01:31;;;;;;;3.60;2.15;;;;;;;;;;5101589;28;20506;-74
2023/07/17 07:04:01;;;;;;;;;;;;;;;;;;5086716;28;20051;-73
2023/07/17 07:06:31;;;;;;;3.22;2.03;;;;;;;;;;5085993;28;20405;-73
2023/07/17 07:09:03;;;;;;;2.95;1.88;;;;;;;;;;5086139;28;20593;-73
2023/07/17 07:11:33;;;;;;;3.10;2.20;;;;;;;;;;5085736;28;20794;-73
2023/07/17 07:14:03;;;;;;;3.75;2.38;;;;;;;;;;5085920;28;20052;-74
2023/07/17 07:16:33;;;;;;;3.50;2.50;;;;;;;;;;5083871;28;20693;-73
2023/07/17 07:19:03;;;;;;;6.22;3.85;;;;;;;;;;5085659;28;20043;-73
2023/07/17 07:21:40;;;;;;;7.32;4.18;;;;;;;;;;5085395;28;20052;-73
2023/07/17 07:24:11;;;;;;;10.68;5.10;;;;;;;;;;5085565;28;20047;-73
2023/07/17 07:26:42;;;;;;;6.72;4.72;;;;;;;;;;5085281;28;20052;-73
2023/07/17 07:29:12;;;;;;;3.45;1.85;;;;;;;;;;5085537;28;20043;-72
2023/07/17 07:31:43;;;;;;;2.80;1.77;;;;;;;;;;5083682;28;20060;-72
2023/07/17 07:34:13;;;;;;;3.30;1.90;;;;;;;;;;5085910;28;20036;-72
2023/07/17 07:36:43;;;;;;;3.20;1.70;;;;;;;;;;5085136;28;20040;-73
2023/07/17 07:39:14;;;;;;;3.17;2.05;;;;;;;;;;5084440;28;20074;-73
2023/07/17 07:41:45;;;;;;;;;;;;;;;;;;5100939;28;20059;-72
2023/07/17 07:44:16;;;;;;;3.20;1.70;;;;;;;;;;5085482;28;20280;-73
2023/07/17 07:46:46;;;;;;;5.20;1.92;;;;;;;;;;5085064;28;20044;-73
2023/07/17 07:49:20;;;;;;;5.25;2.15;;;;;;;;;;5085309;28;20573;-73
2023/07/17 07:51:50;;;;;;;3.78;2.20;;;;;;;;;;5085562;28;20058;-73
2023/07/17 07:54:21;;;;;;;3.53;2.25;;;;;;;;;;5085301;28;20052;-73
2023/07/17 07:56:51;;;;;;;12.10;2.75;;;;;;;;;;5084964;28;20044;-73
2023/07/17 07:59:21;;;;;;;6.97;2.85;;;;;;;;;;5100030;28;20055;-74
2023/07/17 08:01:51;;;;;;;4.13;2.55;;;;;;;;;;5085231;28;20418;-73
2023/07/17 08:04:22;;;;;;;3.40;2.20;;;;;;;;;;5084852;28;20050;-73
2023/07/17 08:06:53;;;;;;;5.00;2.20;;;;;;;;;;5085060;28;20059;-73
2023/07/17 08:09:23;;;;;;;5.18;3.58;;;;;;;;;;5084979;28;20043;-73
2023/07/17 08:11:53;;;;;;;;;;;;;;;;;;5084480;28;20050;-74
2023/07/17 08:14:23;;;;;;;4.80;2.65;;;;;;;;;;5085324;28;20649;-73
2023/07/17 08:16:54;;;;;;;8.05;4.63;;;;;;;;;;5084931;28;20414;-73
2023/07/17 08:19:24;;;;;;;3.90;2.70;;;;;;;;;;5084886;28;20044;-73
2023/07/17 08:21:54;;;;;;;7.63;3.33;;;;;;;;;;5084587;28;20561;-73
2023/07/17 08:24:24;;;;;;;7.53;3.10;;;;;;;;;;5085171;28;20043;-73
2023/07/17 08:26:55;;;;;;;5.68;3.50;;;;;;;;;;5084791;28;20051;-74
2023/07/17 08:29:26;;;;;;;6.53;3.80;;;;;;;;;;5082997;28;20055;-73
2023/07/17 08:31:58;;;;;;;15.50;6.30;;;;;;;;;;5100258;28;20503;-73
2023/07/17 08:34:29;;;;;;;7.63;4.60;;;;;;;;;;5084828;28;20052;-74
2023/07/17 08:36:59;;;;;;;5.55;4.25;;;;;;;;;;5082675;28;20052;-74
2023/07/17 08:39:31;;;;;;;5.13;3.63;;;;;;;;;;5084702;28;20515;-73
2023/07/17 08:42:01;;;;;;;7.47;3.88;;;;;;;;;;5085286;28;20036;-74
2023/07/17 08:44:34;;;;;;;10.07;4.55;;;;;;;;;;5083384;28;20079;-73
2023/07/17 08:47:08;;;;;;;5.65;3.50;;;;;;;;;;5084570;28;20044;-73
2023/07/17 08:49:40;;;;;;;6.43;3.55;;;;;;;;;;5084494;28;20055;-73
2023/07/17 08:52:12;;;;;;;8.10;4.30;;;;;;;;;;5084279;28;20047;-73
2023/07/17 08:54:42;;;;;;;7.05;3.55;;;;;;;;;;5099801;28;20052;-74
2023/07/17 08:57:13;;;;;;;10.18;3.85;;;;;;;;;;5085150;28;20044;-74
2023/07/17 08:59:45;;;;;;;5.97;3.92;;;;;;;;;;5099819;28;20056;-73
2023/07/17 09:02:17;;;;;;;8.13;3.90;;;;;;;;;;5083042;28;20040;-73
2023/07/17 09:04:47;;;;;;;6.72;4.40;;;;;;;;;;5083960;28;20048;-73
2023/07/17 09:07:17;;;;;;;6.70;4.25;;;;;;;;;;5084469;28;20055;-73
2023/07/17 09:10:25;;;;;;;6.93;4.15;;;;;;;;;;5084406;28;20055;-73
2023/07/17 09:12:58;;;;;;;10.73;4.65;;;;;;;;;;5021800;28;20053;-73
2023/07/17 09:15:30;;;;;;;8.35;4.97;;;;;;;;;;5075746;28;20060;-72
2023/07/17 09:18:00;;;;;;;13.20;4.55;;;;;;;;;;5083845;28;20036;-75
2023/07/17 09:20:31;;;;;;;9.25;4.80;;;;;;;;;;5084126;28;20556;-73
2023/07/17 09:23:03;;;;;;;8.18;4.90;;;;;;;;;;5086150;28;20511;-73
2023/07/17 09:25:33;;;;;;;7.00;4.60;;;;;;;;;;5087833;28;20040;-73
2023/07/17 09:28:04;;;;;;;7.80;4.57;;;;;;;;;;5088044;28;20059;-73
2023/07/17 09:30:34;;;;;;;9.68;5.00;;;;;;;;;;5087413;28;20103;-73
2023/07/17 09:33:06;;;;;;;;;;;;;;;;;;5088416;28;20047;-73
2023/07/17 09:35:36;;;;;;;12.23;4.75;;;;;;;;;;5085759;28;20389;-74
2023/07/17 09:38:10;;;;;;;9.27;5.22;;;;;;;;;;5087599;28;20051;-74
2023/07/17 09:40:40;;;;;;;11.02;6.00;;;;;;;;;;5087595;28;20044;-73
2023/07/17 09:43:11;;;;;;;16.00;6.78;;;;;;;;;;5102558;28;20426;-75
2023/07/17 09:45:43;;;;;;;10.90;6.10;;;;;;;;;;5087640;28;20044;-73
2023/07/17 09:48:14;;;;;;;11.32;6.45;;;;;;;;;;5087238;28;20403;-73
2023/07/17 09:50:45;;;;;;;11.77;5.90;;;;;;;;;;5087741;28;20051;-73
2023/07/17 09:53:16;;;;;;;11.80;6.03;;;;;;;;;;5087540;28;20046;-73
2023/07/17 09:55:52;;;;;;;9.35;6.40;;;;;;;;;;5087340;28;20048;-74
2023/07/17 09:58:25;;;;;;;14.57;6.93;;;;;;;;;;5087485;28;20663;-74
2023/07/17 10:00:56;;;;;;;15.57;7.18;;;;;;;;;;5087298;28;20044;-73
2023/07/17 10:03:27;;;;;;;11.57;7.50;;;;;;;;;;5087377;28;20044;-73
2023/07/17 10:06:00;;;;;;;12.02;7.22;;;;;;;;;;5087188;28;20055;-73
2023/07/17 10:08:31;;;;;;;15.23;7.95;;;;;;;;;;5087244;28;20494;-72
2023/07/17 10:11:00;;;;;;;18.23;7.55;;;;;;;;;;5087099;28;20079;-78
2023/07/17 10:13:31;;;;;;;11.00;7.25;;;;;;;;;;5102307;28;20044;-73
2023/07/17 10:16:03;;;;;;;12.85;7.15;;;;;;;;;;5086764;28;20047;-72
2023/07/17 10:18:34;;;;;;;15.98;9.60;;;;;;;;;;5086467;28;20056;-73
2023/07/17 10:21:06;;;;;;;17.52;10.45;;;;;;;;;;5086842;28;20063;-73
2023/07/17 10:23:36;;;;;;;15.50;8.98;;;;;;;;;;5086717;28;20044;-73
2023/07/17 10:26:16;;;;;;;18.73;9.73;;;;;;;;;;5102724;28;20056;-73
2023/07/17 10:28:53;;;;;;;14.70;8.32;;;;;;;;;;5086858;28;20052;-73
2023/07/17 10:31:25;;;;;;;13.43;7.65;;;;;;;;;;5087030;28;20051;-77
2023/07/17 10:34:04;;;;;;;21.23;8.10;;;;;;;;;;5100939;28;20423;-73
2023/07/17 10:36:39;;;;;;;12.32;8.07;;;;;;;;;;5085171;28;20419;-76
2023/07/17 10:39:18;;;;;;;17.40;9.20;;;;;;;;;;5085931;28;20047;-74
2023/07/17 10:41:53;;;;;;;17.25;9.20;;;;;;;;;;5086930;28;20048;-74
2023/07/17 10:44:24;;;;;;;16.48;8.52;;;;;;;;;;5086104;28;20064;-74
2023/07/17 10:46:55;;;;;;;16.60;8.73;;;;;;;;;;5086240;28;20048;-73
2023/07/17 10:49:27;;;;;;;17.13;8.75;;;;;;;;;;5086247;28;20058;-74
2023/07/17 10:51:57;;;;;;;15.13;8.13;;;;;;;;;;5085864;28;20421;-74
2023/07/17 10:54:28;;;;;;;24.08;9.70;;;;;;;;;;5086172;28;20528;-74
2023/07/17 10:56:58;;;;;;;;;;;;;;;;;;5066718;28;20048;-73
2023/07/17 10:59:30;;;;;;;13.30;8.10;;;;;;;;;;5065005;28;19928;-73
2023/07/17 11:02:02;;;;;;;17.83;8.40;;;;;;;;;;5065910;28;20049;-73
2023/07/17 11:04:35;;;;;;;21.23;8.82;;;;;;;;;;5063990;28;20045;-73
2023/07/17 11:07:11;;;;;;;13.73;7.47;;;;;;;;;;5065683;28;20051;-73
2023/07/17 11:09:44;;;;;;;13.88;7.60;;;;;;;;;;5065732;28;20044;-73
2023/07/17 11:12:16;;;;;;;12.60;7.72;;;;;;;;;;5065663;28;20044;-74
2023/07/17 11:14:52;;;;;;;23.80;8.63;;;;;;;;;;5065661;28;20048;-72
2023/07/17 11:17:23;;;;;;;29.45;8.90;;;;;;;;;;5065995;28;20384;-75
2023/07/17 11:20:04;;;;;;;14.43;7.07;;;;;;;;;;5065840;28;20048;-75
2023/07/17 11:22:36;;;;;;;13.35;6.07;;;;;;;;;;5065046;28;20037;-73
2023/07/17 11:25:10;;;;;;;13.52;6.10;;;;;;;;;;5065114;28;20416;-74
2023/07/17 11:27:42;;;;;;;8.88;5.18;;;;;;;;;;5065413;28;20419;-74
2023/07/17 11:30:30;;;;;;;7.38;5.53;;;;;;;;;;5063932;28;20051;-73
2023/07/17 11:33:02;;;;;;;9.40;5.38;;;;;;;;;;5065502;28;20115;-73
2023/07/17 11:35:44;;;;;;;9.50;5.40;;;;;;;;;;5065423;28;20041;-72
2023/07/17 11:38:18;;;;;;;8.57;5.03;;;;;;;;;;5065584;28;20052;-73
2023/07/17 11:40:58;;;;;;;12.93;4.88;;;;;;;;;;5065059;28;20511;-73
2023/07/17 11:43:32;;;;;;;8.07;5.10;;;;;;;;;;5065625;28;20048;-73
2023/07/17 11:46:06;;;;;;;7.90;4.75;;;;;;;;;;5065149;28;20384;-73
2023/07/17 11:48:43;;;;;;;7.28;3.75;;;;;;;;;;5063482;28;20063;-73
2023/07/17 11:51:13;;;;;;;;;;;;;;;;;;5065515;28;20090;-73
2023/07/17 11:53:55;;;;;;;5.00;3.53;;;;;;;;;;5064751;28;19920;-73
2023/07/17 11:56:41;;;;;;;7.05;3.67;;;;;;;;;;5064991;28;20045;-73
2023/07/17 11:59:18;;;;;;;11.38;4.20;;;;;;;;;;5064713;28;20433;-73
2023/07/17 12:01:50;;;;;;;5.40;3.53;;;;;;;;;;5065123;28;20052;-73
2023/07/17 12:04:23;;;;;;;6.00;3.90;;;;;;;;;;5065478;28;20037;-72
2023/07/17 12:06:55;;;;;;;9.63;3.75;;;;;;;;;;5064921;28;20045;-72
2023/07/17 12:09:26;;;;;;;4.80;3.00;;;;;;;;;;5064765;28;20045;-73
2023/07/17 12:11:57;;;;;;;6.25;2.90;;;;;;;;;;5064679;28;20048;-73
2023/07/17 12:14:28;;;;;;;6.72;3.10;;;;;;;;;;5064848;28;20513;-74
2023/07/17 12:16:59;;;;;;;8.98;3.28;;;;;;;;;;5063627;28;20061;-73
2023/07/17 12:19:31;;;;;;;7.20;3.35;;;;;;;;;;5065361;28;20049;-73
2023/07/17 12:22:01;;;;;;;4.63;2.90;;;;;;;;;;5064743;28;20047;-72
2023/07/17 12:24:34;;;;;;;10.27;3.40;;;;;;;;;;5065403;28;20040;-73
2023/07/17 12:27:04;;;;;;;7.38;2.38;;;;;;;;;;5064755;28;20033;-76
2023/07/17 12:29:36;;;;;;;1.92;1.70;;;;;;;;;;5064457;28;20052;-74
2023/07/17 12:32:07;;;;;;;1.70;1.25;;;;;;;;;;5064616;28;20546;-74
2023/07/17 12:34:38;;;;;;;4.13;1.60;;;;;;;;;;5064686;28;20040;-74
2023/07/17 12:37:09;;;;;;;3.33;1.30;;;;;;;;;;5064832;28;20056;-73
2023/07/17 12:39:39;;;;;;;1.77;1.10;;;;;;;;;;5063871;28;20048;-74
2023/07/17 12:42:11;;;;;;;5.47;1.20;;;;;;;;;;5064446;28;20384;-74
2023/07/17 12:44:41;;;;;;;2.75;1.58;;;;;;;;;;5064437;28;20064;-74
2023/07/17 12:47:11;;;;;;;1.98;1.27;;;;;;;;;;5064238;28;20098;-74
2023/07/17 12:49:42;;;;;;;3.20;1.25;;;;;;;;;;5064675;28;20048;-75
2023/07/17 12:52:13;;;;;;;2.55;1.48;;;;;;;;;;5063418;28;20048;-73
2023/07/17 12:54:44;;;;;;;8.95;2.50;;;;;;;;;;5062381;28;20060;-74
2023/07/17 12:57:14;;;;;;;4.40;1.83;;;;;;;;;;5065298;28;20055;-74
2023/07/17 12:59:44;;;;;;;4.63;1.90;;;;;;;;;;5068472;28;20040;-73
2023/07/17 13:02:16;;;;;;;5.55;2.15;;;;;;;;;;5068325;28;20053;-74
2023/07/17 13:04:47;;;;;;;4.80;2.35;;;;;;;;;;5068595;28;20060;-73
2023/07/17 13:07:17;;;;;;;10.85;2.40;;;;;;;;;;5067880;28;20060;-74
2023/07/17 13:09:48;;;;;;;6.50;2.33;;;;;;;;;;5068074;28;20049;-73
2023/07/17 13:12:18;;;;;;;5.07;2.35;;;;;;;;;;5068190;28;20468;-73
2023/07/17 13:14:58;;;;;;;7.47;2.75;;;;;;;;;;5068278;28;20420;-73
2023/07/17 13:17:29;;;;;;;3.75;2.50;;;;;;;;;;5067870;28;20056;-75
2023/07/17 13:20:13;;;;;;;5.10;2.28;;;;;;;;;;5068089;28;20055;-73
2023/07/17 13:22:43;;;;;;;3.92;2.35;;;;;;;;;;5067722;28;20052;-73
2023/07/17 13:25:14;;;;;;;5.00;2.55;;;;;;;;;;5067743;28;20094;-72
2023/07/17 13:27:46;;;;;;;4.35;1.90;;;;;;;;;;5068176;28;20052;-77
2023/07/17 13:30:18;;;;;;;3.38;1.95;;;;;;;;;;5067120;28;20044;-73
2023/07/17 13:32:48;;;;;;;5.35;2.15;;;;;;;;;;5067151;28;20049;-73
2023/07/17 13:35:18;;;;;;;2.75;1.92;;;;;;;;;;5065634;28;20514;-75
2023/07/17 13:37:50;;;;;;;3.35;1.25;;;;;;;;;;5068038;28;20056;-73
2023/07/17 13:40:23;;;;;;;3.13;1.65;;;;;;;;;;5067528;28;20049;-77
2023/07/17 13:42:54;;;;;;;6.13;2.03;;;;;;;;;;5065717;28;20049;-73
2023/07/17 13:45:24;;;;;;;7.28;1.52;;;;;;;;;;5066201;28;20515;-73
2023/07/17 13:47:55;;;;;;;5.82;1.70;;;;;;;;;;5067951;28;20048;-75
2023/07/17 13:50:27;;;;;;;3.97;1.60;;;;;;;;;;5067531;28;20056;-74
2023/07/17 13:52:58;;;;;;;1.88;1.33;;;;;;;;;;5067494;28;20052;-74
2023/07/17 13:55:29;;;;;;;4.25;1.38;;;;;;;;;;5065424;28;20060;-73
2023/07/17 13:57:59;;;;;;;5.28;1.75;;;;;;;;;;5065615;28;20056;-73
2023/07/17 14:00:30;;;;;;;3.92;1.30;;;;;;;;;;5067071;28;20044;-73
2023/07/17 14:03:01;;;;;;;2.33;1.42;;;;;;;;;;5065995;28;20055;-73
2023/07/17 14:05:32;;;;;;;3.58;1.27;;;;;;;;;;5066966;28;20041;-73
2023/07/17 14:08:03;;;;;;;3.42;1.30;;;;;;;;;;5066745;28;20049;-73
2023/07/17 14:10:34;;;;;;;3.22;1.25;;;;;;;;;;5066266;28;20511;-73
2023/07/17 14:13:05;;;;;;;2.88;1.45;;;;;;;;;;5066475;28;20059;-73
2023/07/17 14:15:35;;;;;;;5.53;1.85;;;;;;;;;;5066811;28;20055;-73
2023/07/17 14:18:06;;;;;;;5.03;1.83;;;;;;;;;;5067274;28;20787;-74
2023/07/17 14:20:36;;;;;;;5.40;1.92;;;;;;;;;;5067198;28;20862;-73
2023/07/17 14:23:07;;;;;;;3.53;1.77;;;;;;;;;;5066264;28;20430;-74
2023/07/17 14:25:37;;;;;;;5.88;1.60;;;;;;;;;;5066528;28;20048;-73
2023/07/17 14:28:09;;;;;;;5.90;2.05;;;;;;;;;;5066453;28;20071;-74
2023/07/17 14:30:41;;;;;;;4.43;1.52;;;;;;;;;;5066331;28;20044;-74
2023/07/17 14:33:11;;;;;;;6.70;2.10;;;;;;;;;;5066457;28;20049;-75
2023/07/17 14:35:42;;;;;;;3.58;1.98;;;;;;;;;;5066633;28;20045;-74
2023/07/17 14:38:13;;;;;;;4.18;2.40;;;;;;;;;;5066458;28;20072;-75
2023/07/17 14:40:45;;;;;;;4.90;2.25;;;;;;;;;;5066745;28;20060;-77
2023/07/17 14:43:16;;;;;;;4.75;2.10;;;;;;;;;;5066089;28;20053;-75
2023/07/17 14:45:46;;;;;;;3.42;1.42;;;;;;;;;;5066778;28;20052;-76
2023/07/17 14:48:17;;;;;;;3.67;1.33;;;;;;;;;;5065260;28;20048;-75
2023/07/17 14:50:48;;;;;;;5.47;1.38;;;;;;;;;;5066370;28;20044;-75
2023/07/17 14:53:20;;;;;;;3.35;1.70;;;;;;;;;;5067433;28;20055;-75
2023/07/17 14:55:49;;;;;;;3.08;1.63;;;;;;;;;;5066305;28;20044;-75
2023/07/17 14:58:20;;;;;;;5.40;1.98;;;;;;;;;;5066070;28;20044;-74
2023/07/17 15:00:52;;;;;;;3.58;1.42;;;;;;;;;;5065943;28;20395;-74
2023/07/17 15:03:22;;;;;;;3.85;1.73;;;;;;;;;;5065843;28;20047;-74
2023/07/17 15:05:52;;;;;;;6.95;1.73;;;;;;;;;;5063863;28;20048;-75
2023/07/17 15:08:23;;;;;;;2.58;1.23;;;;;;;;;;5065657;28;20036;-74
2023/07/17 15:11:00;;;;;;;2.42;1.02;;;;;;;;;;5065974;28;20048;-74